sensor_id;sensor_type;location;lat;lon;timestamp;pressure;altitude;pressure_sealevel;temperature;humidity
19594;BME280;9944;48.240;16.478;2023-12-20T00:00:17;99668.72;;;-1.40;84.29
19594;BME280;9944;48.240;16.478;2023-12-20T00:04:21;99685.69;;;-1.47;84.34
19594;BME280;9944;48.240;16.478;2023-12-20T00:08:24;99678.00;;;-1.45;84.69
19594;BME280;9944;48.240;16.478;2023-12-20T00:12:28;99701.63;;;-1.37;84.95
19594;BME280;9944;48.240;16.478;2023-12-20T00:16:32;99724.16;;;-1.35;84.78
19594;BME280;9944;48.240;16.478;2023-12-20T00:20:36;99707.63;;;-1.38;84.63
19594;BME280;9944;48.240;16.478;2023-12-20T00:24:39;99697.47;;;-1.34;84.65
19594;BME280;9944;48.240;16.478;2023-12-20T00:28:43;99701.66;;;-1.36;84.50
19594;BME280;9944;48.240;16.478;2023-12-20T00:32:47;99695.44;;;-1.41;84.38
19594;BME280;9944;48.240;16.478;2023-12-20T00:36:51;99698.84;;;-1.42;84.56
19594;BME280;9944;48.240;16.478;2023-12-20T00:40:54;99702.38;;;-1.40;84.43
19594;BME280;9944;48.240;16.478;2023-12-20T00:44:58;99703.31;;;-1.38;84.74
19594;BME280;9944;48.240;16.478;2023-12-20T00:49:02;99700.72;;;-1.38;84.67
19594;BME280;9944;48.240;16.478;2023-12-20T00:53:06;99696.25;;;-1.42;84.59
19594;BME280;9944;48.240;16.478;2023-12-20T00:57:09;99685.81;;;-1.44;84.42
19594;BME280;9944;48.240;16.478;2023-12-20T01:01:12;99696.88;;;-1.48;84.19
19594;BME280;9944;48.240;16.478;2023-12-20T01:05:17;99679.25;;;-1.56;84.21
19594;BME280;9944;48.240;16.478;2023-12-20T01:09:21;99717.78;;;-1.63;84.31
19594;BME280;9944;48.240;16.478;2023-12-20T01:13:28;99707.44;;;-1.63;84.11
19594;BME280;9944;48.240;16.478;2023-12-20T01:17:31;99703.03;;;-1.65;84.10
19594;BME280;9944;48.240;16.478;2023-12-20T01:21:36;99697.03;;;-1.64;84.05
19594;BME280;9944;48.240;16.478;2023-12-20T01:25:39;99689.09;;;-1.69;83.88
19594;BME280;9944;48.240;16.478;2023-12-20T01:29:43;99677.50;;;-1.77;83.87
19594;BME280;9944;48.240;16.478;2023-12-20T01:33:46;99674.38;;;-1.89;83.76
19594;BME280;9944;48.240;16.478;2023-12-20T01:37:51;99663.03;;;-1.93;84.17
19594;BME280;9944;48.240;16.478;2023-12-20T01:41:54;99646.72;;;-1.90;84.67
19594;BME280;9944;48.240;16.478;2023-12-20T01:45:57;99644.28;;;-1.87;84.92
19594;BME280;9944;48.240;16.478;2023-12-20T01:50:01;99626.25;;;-1.86;85.20
19594;BME280;9944;48.240;16.478;2023-12-20T01:54:07;99628.06;;;-1.83;85.37
19594;BME280;9944;48.240;16.478;2023-12-20T01:58:12;99632.56;;;-1.79;85.59
19594;BME280;9944;48.240;16.478;2023-12-20T02:02:17;99617.06;;;-1.79;85.59
19594;BME280;9944;48.240;16.478;2023-12-20T02:06:21;99606.81;;;-1.76;85.53
19594;BME280;9944;48.240;16.478;2023-12-20T02:10:27;99602.59;;;-1.74;85.74
19594;BME280;9944;48.240;16.478;2023-12-20T02:14:31;99594.13;;;-1.70;85.79
19594;BME280;9944;48.240;16.478;2023-12-20T02:18:34;99578.63;;;-1.70;85.47
19594;BME280;9944;48.240;16.478;2023-12-20T02:22:39;99564.34;;;-1.81;85.07
19594;BME280;9944;48.240;16.478;2023-12-20T02:26:43;99564.03;;;-1.89;84.86
19594;BME280;9944;48.240;16.478;2023-12-20T02:30:48;99556.91;;;-1.94;84.88
19594;BME280;9944;48.240;16.478;2023-12-20T02:34:52;99555.97;;;-1.96;84.99
19594;BME280;9944;48.240;16.478;2023-12-20T02:38:57;99554.19;;;-1.97;85.09
19594;BME280;9944;48.240;16.478;2023-12-20T02:43:00;99539.59;;;-1.95;85.31
19594;BME280;9944;48.240;16.478;2023-12-20T02:47:03;99537.84;;;-1.96;85.08
19594;BME280;9944;48.240;16.478;2023-12-20T02:51:06;99536.78;;;-2.02;84.98
19594;BME280;9944;48.240;16.478;2023-12-20T02:55:11;99539.28;;;-2.03;85.05
19594;BME280;9944;48.240;16.478;2023-12-20T02:59:14;99540.09;;;-2.04;85.06
19594;BME280;9944;48.240;16.478;2023-12-20T03:03:18;99525.44;;;-2.04;85.27
19594;BME280;9944;48.240;16.478;2023-12-20T03:07:21;99534.19;;;-2.02;85.33
19594;BME280;9944;48.240;16.478;2023-12-20T03:11:28;99528.25;;;-1.99;85.31
19594;BME280;9944;48.240;16.478;2023-12-20T03:15:31;99545.28;;;-2.04;85.14
19594;BME280;9944;48.240;16.478;2023-12-20T03:19:34;99554.47;;;-2.11;84.99
19594;BME280;9944;48.240;16.478;2023-12-20T03:23:37;99537.28;;;-2.10;85.07
19594;BME280;9944;48.240;16.478;2023-12-20T03:27:42;99542.22;;;-2.15;85.01
19594;BME280;9944;48.240;16.478;2023-12-20T03:31:45;99541.44;;;-2.14;85.47
19594;BME280;9944;48.240;16.478;2023-12-20T03:35:49;99530.94;;;-2.17;84.87
19594;BME280;9944;48.240;16.478;2023-12-20T03:39:52;99531.63;;;-2.21;84.70
19594;BME280;9944;48.240;16.478;2023-12-20T03:43:56;99521.91;;;-2.27;84.62
19594;BME280;9944;48.240;16.478;2023-12-20T03:47:59;99520.88;;;-2.30;84.50
19594;BME280;9944;48.240;16.478;2023-12-20T03:52:03;99507.81;;;-2.33;84.71
19594;BME280;9944;48.240;16.478;2023-12-20T03:56:06;99518.16;;;-2.33;84.83
19594;BME280;9944;48.240;16.478;2023-12-20T04:00:12;99516.47;;;-2.33;84.97
19594;BME280;9944;48.240;16.478;2023-12-20T04:04:15;99516.41;;;-2.34;84.75
19594;BME280;9944;48.240;16.478;2023-12-20T04:08:19;99518.22;;;-2.32;84.81
19594;BME280;9944;48.240;16.478;2023-12-20T04:12:23;99526.81;;;-2.33;84.73
19594;BME280;9944;48.240;16.478;2023-12-20T04:16:28;99531.91;;;-2.34;84.84
19594;BME280;9944;48.240;16.478;2023-12-20T04:20:31;99520.28;;;-2.44;84.29
19594;BME280;9944;48.240;16.478;2023-12-20T04:24:34;99515.88;;;-2.47;84.49
19594;BME280;9944;48.240;16.478;2023-12-20T04:28:37;99519.41;;;-2.45;84.69
19594;BME280;9944;48.240;16.478;2023-12-20T04:32:42;99517.91;;;-2.40;84.76
19594;BME280;9944;48.240;16.478;2023-12-20T04:36:45;99513.31;;;-2.47;84.43
19594;BME280;9944;48.240;16.478;2023-12-20T04:40:49;99520.03;;;-2.50;84.30
19594;BME280;9944;48.240;16.478;2023-12-20T04:44:52;99513.81;;;-2.54;84.35
19594;BME280;9944;48.240;16.478;2023-12-20T04:48:57;99509.50;;;-2.55;84.39
19594;BME280;9944;48.240;16.478;2023-12-20T04:53:00;99506.69;;;-2.60;84.08
19594;BME280;9944;48.240;16.478;2023-12-20T04:57:04;99517.66;;;-2.65;83.97
19594;BME280;9944;48.240;16.478;2023-12-20T05:01:08;99516.84;;;-2.64;84.13
19594;BME280;9944;48.240;16.478;2023-12-20T05:05:13;99511.84;;;-2.60;84.56
19594;BME280;9944;48.240;16.478;2023-12-20T05:09:17;99490.38;;;-2.59;84.67
19594;BME280;9944;48.240;16.478;2023-12-20T05:13:20;99490.47;;;-2.57;84.45
19594;BME280;9944;48.240;16.478;2023-12-20T05:17:27;99485.53;;;-2.51;84.55
19594;BME280;9944;48.240;16.478;2023-12-20T05:21:31;99495.22;;;-2.47;84.83
19594;BME280;9944;48.240;16.478;2023-12-20T05:25:35;99491.13;;;-2.42;84.69
19594;BME280;9944;48.240;16.478;2023-12-20T05:29:38;99487.63;;;-2.42;84.52
19594;BME280;9944;48.240;16.478;2023-12-20T05:33:41;99494.66;;;-2.40;84.59
19594;BME280;9944;48.240;16.478;2023-12-20T05:37:46;99491.22;;;-2.39;84.75
19594;BME280;9944;48.240;16.478;2023-12-20T05:41:49;99512.03;;;-2.35;84.67
19594;BME280;9944;48.240;16.478;2023-12-20T05:45:52;99513.19;;;-2.29;85.00
19594;BME280;9944;48.240;16.478;2023-12-20T05:49:55;99507.53;;;-2.20;84.90
19594;BME280;9944;48.240;16.478;2023-12-20T05:54:00;99501.50;;;-2.21;84.71
19594;BME280;9944;48.240;16.478;2023-12-20T05:58:03;99506.66;;;-2.21;84.61
19594;BME280;9944;48.240;16.478;2023-12-20T06:02:07;99514.34;;;-2.22;84.67
19594;BME280;9944;48.240;16.478;2023-12-20T06:06:10;99522.25;;;-2.19;84.76
19594;BME280;9944;48.240;16.478;2023-12-20T06:10:19;99519.91;;;-2.13;85.16
19594;BME280;9944;48.240;16.478;2023-12-20T06:14:24;99522.63;;;-2.10;85.01
19594;BME280;9944;48.240;16.478;2023-12-20T06:18:27;99521.94;;;-2.06;85.10
19594;BME280;9944;48.240;16.478;2023-12-20T06:22:30;99510.91;;;-2.02;85.21
19594;BME280;9944;48.240;16.478;2023-12-20T06:26:35;99525.72;;;-1.97;85.47
19594;BME280;9944;48.240;16.478;2023-12-20T06:30:39;99521.56;;;-1.94;85.24
19594;BME280;9944;48.240;16.478;2023-12-20T06:34:42;99515.75;;;-1.88;85.45
19594;BME280;9944;48.240;16.478;2023-12-20T06:38:46;99524.59;;;-1.83;85.53
19594;BME280;9944;48.240;16.478;2023-12-20T06:42:51;99540.38;;;-1.77;85.61
19594;BME280;9944;48.240;16.478;2023-12-20T06:47:09;99536.34;;;-1.70;85.74
19594;BME280;9944;48.240;16.478;2023-12-20T06:51:14;99534.06;;;-1.63;85.91
19594;BME280;9944;48.240;16.478;2023-12-20T06:55:18;99537.34;;;-1.46;86.38
19594;BME280;9944;48.240;16.478;2023-12-20T06:59:23;99511.69;;;-1.17;87.29
19594;BME280;9944;48.240;16.478;2023-12-20T07:03:26;99496.41;;;-0.64;88.51
19594;BME280;9944;48.240;16.478;2023-12-20T07:07:30;99489.09;;;-0.00;90.44
19594;BME280;9944;48.240;16.478;2023-12-20T07:11:33;99501.91;;;0.48;91.46
19594;BME280;9944;48.240;16.478;2023-12-20T07:15:38;99492.41;;;0.77;91.64
19594;BME280;9944;48.240;16.478;2023-12-20T07:19:42;99496.75;;;1.06;91.66
19594;BME280;9944;48.240;16.478;2023-12-20T07:23:45;99527.06;;;1.35;91.11
19594;BME280;9944;48.240;16.478;2023-12-20T07:27:48;99532.34;;;1.69;90.52
19594;BME280;9944;48.240;16.478;2023-12-20T07:31:54;99540.84;;;2.28;89.18
19594;BME280;9944;48.240;16.478;2023-12-20T07:35:57;99562.09;;;2.80;87.25
19594;BME280;9944;48.240;16.478;2023-12-20T07:40:00;99554.09;;;3.11;85.97
19594;BME280;9944;48.240;16.478;2023-12-20T07:44:05;99550.03;;;3.23;85.81
19594;BME280;9944;48.240;16.478;2023-12-20T07:48:10;99546.81;;;3.35;85.32
19594;BME280;9944;48.240;16.478;2023-12-20T07:52:13;99548.59;;;3.38;85.60
19594;BME280;9944;48.240;16.478;2023-12-20T07:56:17;99547.09;;;3.49;84.97
19594;BME280;9944;48.240;16.478;2023-12-20T08:00:20;99549.19;;;3.67;84.48
19594;BME280;9944;48.240;16.478;2023-12-20T08:04:26;99555.34;;;3.71;84.27
19594;BME280;9944;48.240;16.478;2023-12-20T08:08:29;99559.81;;;3.75;83.85
19594;BME280;9944;48.240;16.478;2023-12-20T08:12:32;99540.66;;;3.76;83.98
19594;BME280;9944;48.240;16.478;2023-12-20T08:16:36;99554.69;;;3.81;84.10
19594;BME280;9944;48.240;16.478;2023-12-20T08:20:41;99558.34;;;3.89;84.28
19594;BME280;9944;48.240;16.478;2023-12-20T08:24:44;99546.47;;;4.05;84.08
19594;BME280;9944;48.240;16.478;2023-12-20T08:28:47;99558.13;;;4.24;82.86
19594;BME280;9944;48.240;16.478;2023-12-20T08:32:50;99566.31;;;4.43;81.61
19594;BME280;9944;48.240;16.478;2023-12-20T08:36:55;99554.38;;;4.58;80.44
19594;BME280;9944;48.240;16.478;2023-12-20T08:40:59;99576.38;;;4.73;79.35
19594;BME280;9944;48.240;16.478;2023-12-20T08:45:04;99579.16;;;4.84;78.26
19594;BME280;9944;48.240;16.478;2023-12-20T08:49:07;99579.34;;;4.93;78.26
19594;BME280;9944;48.240;16.478;2023-12-20T08:53:13;99568.94;;;4.99;77.66
19594;BME280;9944;48.240;16.478;2023-12-20T08:57:17;99578.63;;;5.05;77.40
19594;BME280;9944;48.240;16.478;2023-12-20T09:01:21;99596.06;;;5.04;76.74
19594;BME280;9944;48.240;16.478;2023-12-20T09:05:24;99600.50;;;5.10;76.94
19594;BME280;9944;48.240;16.478;2023-12-20T09:09:29;99595.25;;;5.10;76.26
19594;BME280;9944;48.240;16.478;2023-12-20T09:13:33;99603.19;;;5.14;75.96
19594;BME280;9944;48.240;16.478;2023-12-20T09:17:37;99617.16;;;5.13;75.73
19594;BME280;9944;48.240;16.478;2023-12-20T09:21:40;99596.22;;;5.13;76.03
19594;BME280;9944;48.240;16.478;2023-12-20T09:25:45;99607.50;;;5.11;76.36
19594;BME280;9944;48.240;16.478;2023-12-20T09:29:48;99616.19;;;5.08;77.13
19594;BME280;9944;48.240;16.478;2023-12-20T09:33:52;99625.72;;;5.03;77.55
19594;BME280;9944;48.240;16.478;2023-12-20T09:37:55;99631.72;;;4.99;78.35
19594;BME280;9944;48.240;16.478;2023-12-20T09:42:02;99616.78;;;4.92;78.67
19594;BME280;9944;48.240;16.478;2023-12-20T09:46:06;99617.59;;;4.88;79.12
19594;BME280;9944;48.240;16.478;2023-12-20T09:50:10;99611.38;;;4.79;79.63
19594;BME280;9944;48.240;16.478;2023-12-20T09:54:15;99601.72;;;4.77;79.75
19594;BME280;9944;48.240;16.478;2023-12-20T09:58:21;99597.28;;;4.71;79.96
19594;BME280;9944;48.240;16.478;2023-12-20T10:02:25;99600.75;;;4.70;80.29
19594;BME280;9944;48.240;16.478;2023-12-20T10:06:29;99583.25;;;4.66;80.47
19594;BME280;9944;48.240;16.478;2023-12-20T10:10:32;99577.06;;;4.61;80.81
19594;BME280;9944;48.240;16.478;2023-12-20T10:14:48;99578.72;;;4.56;80.91
19594;BME280;9944;48.240;16.478;2023-12-20T10:18:52;99570.88;;;4.56;80.85
19594;BME280;9944;48.240;16.478;2023-12-20T10:22:57;99563.03;;;4.56;81.08
19594;BME280;9944;48.240;16.478;2023-12-20T10:27:04;99560.41;;;4.56;80.79
19594;BME280;9944;48.240;16.478;2023-12-20T10:31:09;99549.06;;;4.54;81.09
19594;BME280;9944;48.240;16.478;2023-12-20T10:35:13;99551.69;;;4.54;80.93
19594;BME280;9944;48.240;16.478;2023-12-20T10:39:17;99553.50;;;4.58;80.94
19594;BME280;9944;48.240;16.478;2023-12-20T10:43:22;99538.63;;;4.55;80.74
19594;BME280;9944;48.240;16.478;2023-12-20T10:47:32;99542.19;;;4.59;80.32
19594;BME280;9944;48.240;16.478;2023-12-20T10:51:37;99528.25;;;4.60;80.29
19594;BME280;9944;48.240;16.478;2023-12-20T10:55:43;99523.88;;;4.59;79.90
19594;BME280;9944;48.240;16.478;2023-12-20T10:59:49;99516.09;;;4.62;79.71
19594;BME280;9944;48.240;16.478;2023-12-20T11:03:58;99516.97;;;4.63;79.40
19594;BME280;9944;48.240;16.478;2023-12-20T11:08:08;99496.03;;;4.61;79.71
19594;BME280;9944;48.240;16.478;2023-12-20T11:12:16;99500.47;;;4.65;79.35
19594;BME280;9944;48.240;16.478;2023-12-20T11:16:21;99497.84;;;4.65;79.40
19594;BME280;9944;48.240;16.478;2023-12-20T11:20:37;99485.66;;;4.67;79.36
19594;BME280;9944;48.240;16.478;2023-12-20T11:24:44;99483.97;;;4.71;79.37
19594;BME280;9944;48.240;16.478;2023-12-20T11:28:48;99494.50;;;4.75;79.31
19594;BME280;9944;48.240;16.478;2023-12-20T11:32:52;99484.06;;;4.78;79.08
19594;BME280;9944;48.240;16.478;2023-12-20T11:37:02;99483.28;;;4.83;79.01
19594;BME280;9944;48.240;16.478;2023-12-20T11:41:06;99484.22;;;4.88;78.78
19594;BME280;9944;48.240;16.478;2023-12-20T11:45:10;99489.47;;;4.91;78.56
19594;BME280;9944;48.240;16.478;2023-12-20T11:49:15;99493.03;;;4.96;78.70
19594;BME280;9944;48.240;16.478;2023-12-20T11:53:20;99500.09;;;5.00;78.60
19594;BME280;9944;48.240;16.478;2023-12-20T11:57:23;99487.94;;;5.05;78.62
19594;BME280;9944;48.240;16.478;2023-12-20T12:01:28;99479.28;;;5.09;78.47
19594;BME280;9944;48.240;16.478;2023-12-20T12:05:31;99458.38;;;5.12;78.72
19594;BME280;9944;48.240;16.478;2023-12-20T12:09:37;99475.03;;;5.18;78.39
19594;BME280;9944;48.240;16.478;2023-12-20T12:13:40;99483.84;;;5.24;77.88
19594;BME280;9944;48.240;16.478;2023-12-20T12:17:43;99479.53;;;5.28;77.76
19594;BME280;9944;48.240;16.478;2023-12-20T12:21:47;99481.34;;;5.35;77.46
19594;BME280;9944;48.240;16.478;2023-12-20T12:25:52;99476.16;;;5.38;77.58
19594;BME280;9944;48.240;16.478;2023-12-20T12:30:00;99454.41;;;5.44;77.68
19594;BME280;9944;48.240;16.478;2023-12-20T12:34:05;99454.47;;;5.48;77.37
19594;BME280;9944;48.240;16.478;2023-12-20T12:38:11;99453.59;;;5.51;76.67
19594;BME280;9944;48.240;16.478;2023-12-20T12:42:16;99454.50;;;5.53;76.65
19594;BME280;9944;48.240;16.478;2023-12-20T12:46:19;99453.72;;;5.59;76.38
19594;BME280;9944;48.240;16.478;2023-12-20T12:50:24;99448.47;;;5.62;76.09
19594;BME280;9944;48.240;16.478;2023-12-20T12:54:29;99441.53;;;5.64;75.81
19594;BME280;9944;48.240;16.478;2023-12-20T12:58:34;99428.44;;;5.62;75.81
19594;BME280;9944;48.240;16.478;2023-12-20T13:02:37;99438.00;;;5.62;75.61
19594;BME280;9944;48.240;16.478;2023-12-20T13:06:44;99447.69;;;5.69;76.05
19594;BME280;9944;48.240;16.478;2023-12-20T13:10:47;99439.88;;;5.73;75.84
19594;BME280;9944;48.240;16.478;2023-12-20T13:14:52;99454.75;;;5.79;75.61
19594;BME280;9944;48.240;16.478;2023-12-20T13:18:55;99449.56;;;5.81;75.10
19594;BME280;9944;48.240;16.478;2023-12-20T13:22:58;99453.06;;;5.80;75.30
19594;BME280;9944;48.240;16.478;2023-12-20T13:27:02;99460.94;;;5.81;74.91
19594;BME280;9944;48.240;16.478;2023-12-20T13:31:07;99450.44;;;5.84;75.06
19594;BME280;9944;48.240;16.478;2023-12-20T13:35:10;99473.16;;;5.82;75.13
19594;BME280;9944;48.240;16.478;2023-12-20T13:39:14;99447.84;;;5.84;74.94
19594;BME280;9944;48.240;16.478;2023-12-20T13:43:18;99450.44;;;5.81;74.33
19594;BME280;9944;48.240;16.478;2023-12-20T13:47:25;99452.16;;;5.79;74.84
19594;BME280;9944;48.240;16.478;2023-12-20T13:51:28;99446.91;;;5.78;74.61
19594;BME280;9944;48.240;16.478;2023-12-20T13:55:31;99467.88;;;5.79;74.55
19594;BME280;9944;48.240;16.478;2023-12-20T13:59:35;99480.94;;;5.78;74.31
19594;BME280;9944;48.240;16.478;2023-12-20T14:03:39;99470.47;;;5.79;74.78
19594;BME280;9944;48.240;16.478;2023-12-20T14:07:42;99479.25;;;5.83;74.84
19594;BME280;9944;48.240;16.478;2023-12-20T14:11:48;99482.81;;;5.86;74.63
19594;BME280;9944;48.240;16.478;2023-12-20T14:15:51;99473.19;;;5.85;74.58
19594;BME280;9944;48.240;16.478;2023-12-20T14:19:57;99473.13;;;5.81;74.46
19594;BME280;9944;48.240;16.478;2023-12-20T14:24:00;99470.47;;;5.76;74.43
19594;BME280;9944;48.240;16.478;2023-12-20T14:28:04;99469.56;;;5.71;74.57
19594;BME280;9944;48.240;16.478;2023-12-20T14:32:07;99459.03;;;5.68;74.50
19594;BME280;9944;48.240;16.478;2023-12-20T14:36:12;99455.50;;;5.63;74.49
19594;BME280;9944;48.240;16.478;2023-12-20T14:40:15;99469.38;;;5.56;74.73
19594;BME280;9944;48.240;16.478;2023-12-20T14:44:19;99485.03;;;5.52;74.58
19594;BME280;9944;48.240;16.478;2023-12-20T14:48:23;99477.16;;;5.49;74.73
19594;BME280;9944;48.240;16.478;2023-12-20T14:52:28;99480.66;;;5.51;74.66
19594;BME280;9944;48.240;16.478;2023-12-20T14:56:31;99467.66;;;5.58;75.04
19594;BME280;9944;48.240;16.478;2023-12-20T15:00:34;99472.84;;;5.54;74.61
19594;BME280;9944;48.240;16.478;2023-12-20T15:04:37;99473.69;;;5.52;74.47
19594;BME280;9944;48.240;16.478;2023-12-20T15:08:44;99484.97;;;5.46;74.65
19594;BME280;9944;48.240;16.478;2023-12-20T15:12:47;99471.84;;;5.43;74.47
19594;BME280;9944;48.240;16.478;2023-12-20T15:16:51;99484.03;;;5.43;74.54
19594;BME280;9944;48.240;16.478;2023-12-20T15:20:54;99486.63;;;5.38;74.47
19594;BME280;9944;48.240;16.478;2023-12-20T15:24:59;99490.94;;;5.34;74.68
19594;BME280;9944;48.240;16.478;2023-12-20T15:29:03;99490.00;;;5.29;74.49
19594;BME280;9944;48.240;16.478;2023-12-20T15:33:06;99495.19;;;5.25;74.45
19594;BME280;9944;48.240;16.478;2023-12-20T15:37:09;99498.66;;;5.22;74.84
19594;BME280;9944;48.240;16.478;2023-12-20T15:41:18;99485.53;;;5.19;74.65
19594;BME280;9944;48.240;16.478;2023-12-20T15:45:22;99488.13;;;5.18;74.97
19594;BME280;9944;48.240;16.478;2023-12-20T15:49:25;99488.06;;;5.14;75.23
19594;BME280;9944;48.240;16.478;2023-12-20T15:53:28;99492.44;;;5.15;75.22
19594;BME280;9944;48.240;16.478;2023-12-20T15:57:33;99491.56;;;5.16;75.39
19594;BME280;9944;48.240;16.478;2023-12-20T16:01:52;99502.03;;;5.16;75.31
19594;BME280;9944;48.240;16.478;2023-12-20T16:05:56;99504.72;;;5.20;75.60
19594;BME280;9944;48.240;16.478;2023-12-20T16:10:00;99509.09;;;5.21;75.57
19594;BME280;9944;48.240;16.478;2023-12-20T16:14:05;99518.75;;;5.26;75.35
19594;BME280;9944;48.240;16.478;2023-12-20T16:18:08;99525.72;;;5.26;75.24
19594;BME280;9944;48.240;16.478;2023-12-20T16:22:13;99516.13;;;5.25;75.03
19594;BME280;9944;48.240;16.478;2023-12-20T16:26:16;99531.75;;;5.22;74.94
19594;BME280;9944;48.240;16.478;2023-12-20T16:30:21;99520.38;;;5.18;74.95
19594;BME280;9944;48.240;16.478;2023-12-20T16:34:24;99521.22;;;5.15;74.96
19594;BME280;9944;48.240;16.478;2023-12-20T16:38:27;99529.88;;;5.11;74.66
19594;BME280;9944;48.240;16.478;2023-12-20T16:42:30;99536.84;;;5.09;74.98
19594;BME280;9944;48.240;16.478;2023-12-20T16:46:35;99542.00;;;5.06;74.69
19594;BME280;9944;48.240;16.478;2023-12-20T16:50:39;99548.22;;;5.13;73.89
19594;BME280;9944;48.240;16.478;2023-12-20T16:54:42;99552.63;;;5.15;73.99
19594;BME280;9944;48.240;16.478;2023-12-20T16:58:45;99554.38;;;5.16;73.06
19594;BME280;9944;48.240;16.478;2023-12-20T17:02:50;99564.06;;;5.22;72.72
19594;BME280;9944;48.240;16.478;2023-12-20T17:06:53;99563.19;;;5.23;72.34
19594;BME280;9944;48.240;16.478;2023-12-20T17:10:57;99560.53;;;5.20;72.20
19594;BME280;9944;48.240;16.478;2023-12-20T17:15:00;99562.28;;;5.20;72.35
19594;BME280;9944;48.240;16.478;2023-12-20T17:19:06;99557.81;;;5.12;72.29
19594;BME280;9944;48.240;16.478;2023-12-20T17:23:10;99551.72;;;5.12;72.37
19594;BME280;9944;48.240;16.478;2023-12-20T17:27:13;99555.97;;;5.05;71.92
19594;BME280;9944;48.240;16.478;2023-12-20T17:31:17;99562.91;;;5.03;70.76
19594;BME280;9944;48.240;16.478;2023-12-20T17:35:21;99570.78;;;5.03;69.89
19594;BME280;9944;48.240;16.478;2023-12-20T17:39:24;99581.22;;;5.03;69.81
19594;BME280;9944;48.240;16.478;2023-12-20T17:43:28;99567.22;;;5.00;67.67
19594;BME280;9944;48.240;16.478;2023-12-20T17:47:31;99567.22;;;5.01;67.90
19594;BME280;9944;48.240;16.478;2023-12-20T17:51:36;99555.97;;;5.05;67.45
19594;BME280;9944;48.240;16.478;2023-12-20T17:55:39;99551.59;;;5.04;67.14
19594;BME280;9944;48.240;16.478;2023-12-20T17:59:43;99553.38;;;5.07;66.27
19594;BME280;9944;48.240;16.478;2023-12-20T18:03:46;99562.03;;;5.04;66.56
19594;BME280;9944;48.240;16.478;2023-12-20T18:07:51;99551.53;;;5.01;66.71
19594;BME280;9944;48.240;16.478;2023-12-20T18:11:54;99553.19;;;4.96;67.55
19594;BME280;9944;48.240;16.478;2023-12-20T18:15:58;99563.59;;;4.90;68.14
19594;BME280;9944;48.240;16.478;2023-12-20T18:20:02;99582.66;;;4.83;68.60
19594;BME280;9944;48.240;16.478;2023-12-20T18:24:07;99590.38;;;4.76;68.56
19594;BME280;9944;48.240;16.478;2023-12-20T18:28:12;99599.03;;;4.72;69.08
19594;BME280;9944;48.240;16.478;2023-12-20T18:32:16;99599.00;;;4.69;69.36
19594;BME280;9944;48.240;16.478;2023-12-20T18:36:19;99595.47;;;4.67;69.36
19594;BME280;9944;48.240;16.478;2023-12-20T18:40:24;99598.94;;;4.66;69.11
19594;BME280;9944;48.240;16.478;2023-12-20T18:44:29;99588.44;;;4.63;69.19
19594;BME280;9944;48.240;16.478;2023-12-20T18:48:33;99584.03;;;4.60;69.13
19594;BME280;9944;48.240;16.478;2023-12-20T18:52:37;99577.09;;;4.63;69.29
19594;BME280;9944;48.240;16.478;2023-12-20T18:56:41;99564.00;;;4.63;68.62
19594;BME280;9944;48.240;16.478;2023-12-20T19:00:45;99549.19;;;4.62;69.01
19594;BME280;9944;48.240;16.478;2023-12-20T19:04:48;99546.63;;;4.65;68.62
19594;BME280;9944;48.240;16.478;2023-12-20T19:08:51;99531.81;;;4.64;68.54
19594;BME280;9944;48.240;16.478;2023-12-20T19:12:57;99532.66;;;4.64;67.99
19594;BME280;9944;48.240;16.478;2023-12-20T19:17:00;99534.38;;;4.62;67.89
19594;BME280;9944;48.240;16.478;2023-12-20T19:21:04;99540.47;;;4.61;68.07
19594;BME280;9944;48.240;16.478;2023-12-20T19:25:09;99527.38;;;4.58;67.59
19594;BME280;9944;48.240;16.478;2023-12-20T19:29:16;99540.41;;;4.56;68.00
19594;BME280;9944;48.240;16.478;2023-12-20T19:33:19;99534.31;;;4.57;68.06
19594;BME280;9944;48.240;16.478;2023-12-20T19:37:22;99549.97;;;4.56;67.90
19594;BME280;9944;48.240;16.478;2023-12-20T19:41:25;99540.34;;;4.53;67.95
19594;BME280;9944;48.240;16.478;2023-12-20T19:45:30;99542.16;;;4.57;67.71
19594;BME280;9944;48.240;16.478;2023-12-20T19:49:33;99538.59;;;4.54;67.71
19594;BME280;9944;48.240;16.478;2023-12-20T19:53:37;99550.84;;;4.55;67.71
19594;BME280;9944;48.240;16.478;2023-12-20T19:57:41;99556.97;;;4.57;66.61
19594;BME280;9944;48.240;16.478;2023-12-20T20:01:46;99546.44;;;4.54;66.63
19594;BME280;9944;48.240;16.478;2023-12-20T20:05:49;99547.34;;;4.56;66.76
19594;BME280;9944;48.240;16.478;2023-12-20T20:09:53;99529.88;;;4.53;66.96
19594;BME280;9944;48.240;16.478;2023-12-20T20:13:56;99542.09;;;4.53;66.96
19594;BME280;9944;48.240;16.478;2023-12-20T20:18:02;99548.16;;;4.52;66.83
19594;BME280;9944;48.240;16.478;2023-12-20T20:22:06;99553.44;;;4.55;67.06
19594;BME280;9944;48.240;16.478;2023-12-20T20:26:09;99565.63;;;4.53;66.80
19594;BME280;9944;48.240;16.478;2023-12-20T20:30:13;99570.84;;;4.53;66.77
19594;BME280;9944;48.240;16.478;2023-12-20T20:34:18;99554.31;;;4.55;66.58
19594;BME280;9944;48.240;16.478;2023-12-20T20:38:22;99552.53;;;4.54;66.81
19594;BME280;9944;48.240;16.478;2023-12-20T20:42:26;99564.78;;;4.55;67.17
19594;BME280;9944;48.240;16.478;2023-12-20T20:46:31;99538.63;;;4.55;66.99
19594;BME280;9944;48.240;16.478;2023-12-20T20:50:36;99544.66;;;4.50;67.28
19594;BME280;9944;48.240;16.478;2023-12-20T20:54:39;99541.13;;;4.48;67.48
19594;BME280;9944;48.240;16.478;2023-12-20T20:58:43;99525.44;;;4.48;67.63
19594;BME280;9944;48.240;16.478;2023-12-20T21:02:47;99529.75;;;4.46;67.53
19594;BME280;9944;48.240;16.478;2023-12-20T21:06:52;99526.22;;;4.44;67.19
19594;BME280;9944;48.240;16.478;2023-12-20T21:10:55;99534.06;;;4.44;67.00
19594;BME280;9944;48.240;16.478;2023-12-20T21:15:01;99513.13;;;4.40;67.22
19594;BME280;9944;48.240;16.478;2023-12-20T21:19:04;99513.13;;;4.40;66.92
19594;BME280;9944;48.240;16.478;2023-12-20T21:23:10;99504.38;;;4.38;66.79
19594;BME280;9944;48.240;16.478;2023-12-20T21:27:13;99494.72;;;4.34;66.88
19594;BME280;9944;48.240;16.478;2023-12-20T21:31:16;99503.41;;;4.33;66.48
19594;BME280;9944;48.240;16.478;2023-12-20T21:35:19;99506.00;;;4.30;66.72
19594;BME280;9944;48.240;16.478;2023-12-20T21:39:24;99504.28;;;4.32;66.49
19594;BME280;9944;48.240;16.478;2023-12-20T21:43:35;99503.38;;;4.30;66.45